メインページ
METAR-TAF:

METAR-TAF

空港 :

セーシェル国際空港

ヴィクトリア, マヘ島, セーシェル

緯度: 04-40S, 経度: 055-31E, 海抜: 3m

現時点の気象観測

当レポートは39分前の05:00(UTC)に作成
北/北西の風 3kt、西からの間で変化する
気温 29°C
湿度 74%
気圧 1015 hPa
視程10km以上
高度1800ftの雲はほとんどない, 積乱雲.
高度1900ftの雲はほとんどない

METAR: FSIA 220500Z 34003KT 280V010 9999 FEW018CB FEW019 29/24 Q1015 NOSIG

時間: 09:39 (05:39 UTC)

予報

当レポートは34分前の05:05(UTC)に作成
予報は22日の 06時(UTC)から 23日の 06時(UTC)まで有効
の風 5kt
視程10km以上
高度1800ftの雲はほとんどない, 積乱雲.
高度1900ftの雲は散在している

TAF: FSIA 220505Z 2206/2306 35005KT 9999 FEW018CB SCT019

4,000以上の空港の気象観測と天気予報(METAR報とTAF報)

利用可能な観測所は地図上に黄色い丸と赤い丸で示す。

丸の上にカーソルを重ねると観測所名を参照できる。

次にクリックすると気象観測と天気予報を参照できる。

マップの切り替え:黒色「×」印の緑ボタンをクリックして拡大、「-」印の緑ボタンをクリックして縮小、緑色の三角印をクリックして隣りの地図に切り替え


METAR-TAF: